Time;durP1;ratioP1;P1;durP2;ratioP2;P2;SDS_P1;SDS_P2;PMS_P1;PMS_P2;Temp;Humidity;BMP_temperature;BMP_pressure;BME280_temperature;BME280_humidity;BME280_pressure;Samples;Min_cycle;Max_cycle;Signal;HPM_P1;HPM_P2
2023/06/22 00:02:29;;;;;;;28.90;23.00;;;;;;;21.90;71.96;98740.38;436180;1254;109349;-42
2023/06/22 00:12:36;;;;;;;27.20;23.50;;;;;;;21.77;72.24;98743.27;436233;1253;98114;-42
2023/06/22 00:22:43;;;;;;;25.40;20.40;;;;;;;21.45;72.46;98761.82;436240;1248;112782;-44
2023/06/22 00:32:50;;;;;;;24.10;19.80;;;;;;;21.22;72.80;98763.34;436463;1253;108301;-43
2023/06/22 00:42:56;;;;;;;28.50;23.70;;;;;;;21.01;72.99;98773.09;436274;1254;98797;-42
2023/06/22 01:03:13;;;;;;;33.80;24.40;;;;;;;20.62;74.24;98752.39;436393;1261;98383;-42
2023/06/22 01:13:20;;;;;;;30.40;24.60;;;;;;;20.72;74.68;98736.48;437127;1253;112041;-41
2023/06/22 01:23:30;;;;;;;37.90;27.60;;;;;;;20.68;74.82;98740.15;436105;1254;109632;-41
2023/06/22 01:33:41;;;;;;;46.50;26.60;;;;;;;20.63;75.09;98732.49;436168;1253;99203;-42
2023/06/22 01:43:49;;;;;;;37.80;25.30;;;;;;;20.49;75.13;98752.36;436177;1254;107771;-42
2023/06/22 01:53:57;;;;;;;29.60;24.30;;;;;;;20.42;75.57;98770.73;436289;1252;99282;-42
2023/06/22 02:04:04;;;;;;;30.90;24.80;;;;;;;20.28;75.38;98775.14;436231;1248;112817;-42
2023/06/22 02:14:12;;;;;;;28.90;23.20;;;;;;;20.25;75.94;98787.79;436181;1252;106910;-42
2023/06/22 02:24:19;;;;;;;29.40;24.00;;;;;;;20.12;75.67;98793.64;436310;1254;99250;-43
2023/06/22 02:34:26;;;;;;;32.80;25.60;;;;;;;19.97;75.95;98800.00;436202;1254;108689;-42
2023/06/22 02:44:33;;;;;;;25.00;21.00;;;;;;;19.80;76.16;98821.02;436217;1248;99311;-43
2023/06/22 02:54:40;;;;;;;27.90;20.80;;;;;;;19.79;76.45;98823.81;436123;1262;114111;-43
2023/06/22 03:14:54;;;;;;;37.10;22.20;;;;;;;19.73;76.82;98843.86;436352;1252;99086;-43
2023/06/22 03:25:01;;;;;;;27.40;23.20;;;;;;;20.20;77.09;98857.44;435843;1248;439187;-43
2023/06/22 03:35:10;;;;;;;30.50;24.90;;;;;;;21.04;76.68;98874.40;436325;1248;98814;-44
2023/06/22 03:45:17;;;;;;;28.50;24.90;;;;;;;22.27;76.21;98873.44;436294;1248;111150;-41
2023/06/22 03:55:24;;;;;;;32.60;25.90;;;;;;;23.54;74.85;98879.16;436169;1254;110239;-43
2023/06/22 04:05:31;;;;;;;33.30;25.00;;;;;;;24.54;73.37;98878.66;436291;1248;99227;-43
2023/06/22 04:15:39;;;;;;;33.30;24.70;;;;;;;25.46;71.92;98887.88;436254;1248;108391;-42
2023/06/22 04:25:46;;;;;;;30.90;25.40;;;;;;;26.26;70.32;98892.84;436483;1248;99153;-43
2023/06/22 04:35:54;;;;;;;39.00;25.10;;;;;;;26.86;68.97;98903.86;436419;1247;113908;-42
2023/06/22 04:46:03;;;;;;;22.70;20.40;;;;;;;27.67;67.49;98901.70;436481;1250;108633;-42
2023/06/22 04:56:11;;;;;;;20.70;18.50;;;;;;;27.66;65.40;98915.34;436381;1253;101346;-43
2023/06/22 05:06:19;;;;;;;21.70;17.90;;;;;;;27.35;63.99;98929.44;436383;1253;108002;-43
2023/06/22 05:16:27;;;;;;;17.60;14.90;;;;;;;27.50;62.37;98929.45;436125;1253;99217;-42
2023/06/22 05:26:35;;;;;;;15.90;13.60;;;;;;;27.57;60.63;98936.75;435465;1251;112344;-42
2023/06/22 05:36:43;;;;;;;13.30;11.80;;;;;;;27.39;59.31;98939.20;435568;1252;107763;-42
2023/06/22 05:46:51;;;;;;;14.90;11.50;;;;;;;27.49;57.67;98948.02;435597;1253;99212;-42
2023/06/22 05:56:58;;;;;;;11.00;9.60;;;;;;;27.02;56.96;98951.00;435353;1253;108667;-43
2023/06/22 06:07:06;;;;;;;15.40;9.70;;;;;;;27.58;55.63;98952.67;435622;1253;98886;-43
2023/06/22 06:17:13;;;;;;;13.20;9.40;;;;;;;27.74;53.92;98961.42;435896;1253;112937;-43
2023/06/22 06:27:20;;;;;;;12.50;7.90;;;;;;;27.67;52.98;98963.13;436307;1248;108452;-44
2023/06/22 06:37:27;;;;;;;8.90;7.40;;;;;;;27.63;52.06;98968.83;436622;1248;99087;-43
2023/06/22 06:47:35;;;;;;;12.90;7.60;;;;;;;27.59;50.84;98974.62;436329;1248;109500;-42
2023/06/22 06:57:43;;;;;;;10.60;8.20;;;;;;;27.21;51.19;98967.69;436387;1252;99330;-42
2023/06/22 07:07:50;;;;;;;10.70;8.20;;;;;;;27.67;50.99;98959.21;436533;1247;111164;-43
2023/06/22 07:17:59;;;;;;;10.70;8.90;;;;;;;28.18;51.16;98945.77;436270;1248;107251;-43
2023/06/22 07:28:08;;;;;;;10.80;9.80;;;;;;;28.10;50.15;98947.68;436207;1253;98328;-43
2023/06/22 07:38:15;;;;;;;12.00;8.70;;;;;;;28.27;50.72;98950.11;436466;1253;107205;-42
2023/06/22 07:58:28;;;;;;;14.20;10.40;;;;;;;27.99;50.88;98969.67;436526;1264;110488;-42
2023/06/22 08:08:35;;;;;;;10.10;9.10;;;;;;;28.41;50.00;98972.24;436409;1247;108411;-42
2023/06/22 08:18:42;;;;;;;11.20;9.20;;;;;;;28.31;49.88;98972.69;436292;1252;99339;-44
2023/06/22 08:28:50;;;;;;;10.90;9.80;;;;;;;28.58;49.34;98982.45;436234;1253;108855;-43
2023/06/22 08:39:01;;;;;;;11.50;10.50;;;;;;;28.67;48.96;98989.88;436381;1248;99205;-42
2023/06/22 08:59:16;;;;;;;10.40;9.40;;;;;;;28.99;48.80;99003.41;436413;1248;109060;-43
2023/06/22 09:09:24;;;;;;;9.80;8.90;;;;;;;29.35;48.71;99007.64;436196;1251;99231;-44
2023/06/22 09:19:31;;;;;;;9.10;8.30;;;;;;;29.52;48.11;99004.84;436515;1248;108622;-44
2023/06/22 09:29:38;;;;;;;15.20;10.60;;;;;;;29.37;48.32;99006.83;436414;1248;99231;-43
2023/06/22 09:39:45;;;;;;;9.20;8.10;;;;;;;29.10;48.52;98988.20;436383;1253;111769;-43
2023/06/22 09:49:54;;;;;;;9.00;8.20;;;;;;;29.55;47.88;98968.67;436291;1251;108312;-44
2023/06/22 10:00:05;;;;;;;10.70;8.40;;;;;;;29.67;46.97;98956.41;436560;1247;99266;-42
2023/06/22 10:10:10;;;;;;;9.50;8.70;;;;;;;30.08;46.79;98958.44;436281;1252;106233;-42
2023/06/22 10:20:18;;;;;;;9.80;8.80;;;;;;;29.88;46.58;98961.48;436512;1247;99270;-44
2023/06/22 10:30:26;;;;;;;8.80;8.10;;;;;;;29.88;45.98;98951.73;436299;1252;110957;-44
2023/06/22 10:40:33;;;;;;;10.00;8.20;;;;;;;29.86;45.99;98947.97;436401;1253;106806;-44
2023/06/22 10:50:41;;;;;;;10.20;7.80;;;;;;;30.33;45.38;98950.33;436373;1248;99311;-42
2023/06/22 11:00:48;;;;;;;8.20;7.60;;;;;;;29.87;44.73;98955.21;436340;1253;108330;-43
2023/06/22 11:10:55;;;;;;;9.50;8.60;;;;;;;29.89;45.17;98944.90;436514;1253;99234;-43
2023/06/22 11:21:01;;;;;;;7.80;7.10;;;;;;;30.54;44.61;98932.44;436321;1253;113968;-42
2023/06/22 11:41:31;;;;;;;7.50;6.90;;;;;;;30.19;44.99;98921.36;436418;1252;101348;-43
2023/06/22 11:51:38;;;;;;;8.10;7.20;;;;;;;30.91;43.59;98922.05;436780;1252;107334;-43
2023/06/22 12:01:45;;;;;;;7.80;7.10;;;;;;;30.94;42.72;98914.48;436367;1261;99256;-42
2023/06/22 12:11:52;;;;;;;8.60;6.80;;;;;;;30.56;42.31;98899.83;436408;1252;103702;-42
2023/06/22 12:21:59;;;;;;;8.30;6.40;;;;;;;30.69;42.62;98890.36;436421;1254;108070;-42
2023/06/22 12:32:08;;;;;;;7.80;7.10;;;;;;;30.82;42.02;98884.27;436459;1247;97999;-42
2023/06/22 12:42:14;;;;;;;9.20;7.20;;;;;;;30.69;41.79;98874.77;436366;1253;107710;-44
2023/06/22 12:52:22;;;;;;;8.20;7.40;;;;;;;30.36;41.62;98858.81;436369;1251;99243;-43
2023/06/22 13:02:29;;;;;;;8.00;6.60;;;;;;;30.47;41.53;98849.10;436251;1253;111578;-41
2023/06/22 13:12:37;;;;;;;10.90;7.70;;;;;;;30.56;41.20;98837.77;436330;1254;108038;-41
2023/06/22 13:22:44;;;;;;;7.70;6.60;;;;;;;30.46;41.44;98831.77;436470;1254;99250;-42
2023/06/22 13:32:51;;;;;;;7.50;6.90;;;;;;;30.41;41.10;98837.42;436245;1253;108552;-43
2023/06/22 13:43:00;;;;;;;6.90;6.40;;;;;;;30.29;40.49;98831.31;436292;1253;99222;-43
2023/06/22 13:53:07;;;;;;;7.70;6.80;;;;;;;30.24;40.61;98818.09;436456;1261;111505;-45
2023/06/22 14:13:22;;;;;;;8.10;7.40;;;;;;;30.40;40.37;98812.08;436282;1253;99214;-43
2023/06/22 14:23:28;;;;;;;8.50;7.70;;;;;;;30.22;40.51;98811.67;436223;1252;109591;-43
2023/06/22 14:33:35;;;;;;;9.10;7.60;;;;;;;30.10;40.54;98809.83;436409;1253;99215;-43
2023/06/22 14:53:51;;;;;;;12.30;7.20;;;;;;;30.01;40.46;98800.86;436362;1249;106441;-43
2023/06/22 15:03:57;;;;;;;8.00;7.30;;;;;;;30.08;40.47;98788.98;436309;1253;99215;-44
2023/06/22 15:14:04;;;;;;;8.00;7.30;;;;;;;30.01;40.47;98790.65;436263;1253;108596;-43
2023/06/22 15:24:13;;;;;;;8.40;7.60;;;;;;;29.85;40.61;98781.89;436078;1253;393790;-42
2023/06/22 15:34:21;;;;;;;8.20;7.50;;;;;;;29.59;40.50;98774.48;436494;1253;111317;-42
2023/06/22 15:44:28;;;;;;;15.70;8.30;;;;;;;29.51;40.48;98770.23;436383;1251;107757;-43
2023/06/22 15:54:35;;;;;;;7.80;7.20;;;;;;;29.48;40.72;98771.16;436391;1251;98020;-43
2023/06/22 16:04:42;;;;;;;10.20;8.40;;;;;;;29.57;40.73;98767.41;436221;1253;109430;-43
2023/06/22 16:14:51;;;;;;;11.20;8.00;;;;;;;29.53;40.47;98764.36;436328;1253;99249;-42
2023/06/22 16:24:58;;;;;;;7.10;6.40;;;;;;;29.27;40.34;98755.73;436313;1254;113116;-41
2023/06/22 16:35:04;;;;;;;5.90;5.40;;;;;;;29.03;39.78;98760.16;436399;1257;109249;-41
2023/06/22 16:45:10;;;;;;;5.10;4.70;;;;;;;28.52;38.70;98756.02;436314;1253;99221;-42
2023/06/22 16:55:17;;;;;;;7.70;4.20;;;;;;;28.25;38.74;98749.23;436244;1253;108270;-42
2023/06/22 17:05:27;;;;;;;7.40;5.20;;;;;;;28.07;38.69;98744.34;436149;1253;99247;-42
2023/06/22 17:15:35;;;;;;;5.90;4.20;;;;;;;27.91;38.72;98730.80;436276;1248;112258;-44
2023/06/22 17:25:44;;;;;;;5.30;4.40;;;;;;;27.69;38.85;98717.30;436366;1253;108063;-41
2023/06/22 17:35:51;;;;;;;10.00;4.30;;;;;;;27.41;38.72;98709.25;436352;1261;99321;-42
2023/06/22 17:45:59;;;;;;;6.30;3.60;;;;;;;27.19;38.86;98708.60;436168;1261;108555;-42
2023/06/22 17:56:06;;;;;;;4.00;3.70;;;;;;;26.90;38.41;98697.52;436577;1253;98413;-42
2023/06/22 18:06:13;;;;;;;3.20;2.90;;;;;;;26.64;38.23;98686.67;436346;1254;111304;-43
2023/06/22 18:26:28;;;;;;;5.60;3.60;;;;;;;26.22;38.09;98666.08;436376;1254;99279;-41
2023/06/22 18:36:36;;;;;;;6.60;2.90;;;;;;;25.87;38.71;98668.44;436388;1248;108802;-43
2023/06/22 18:46:44;;;;;;;6.60;3.30;;;;;;;25.46;39.15;98674.08;436285;1253;99018;-44
2023/06/22 18:56:57;;;;;;;3.70;3.30;;;;;;;25.08;39.83;98683.20;436235;1254;112488;-42
2023/06/22 19:07:06;;;;;;;9.20;3.70;;;;;;;24.62;40.91;98685.26;436265;1248;107533;-43
2023/06/22 19:17:19;;;;;;;4.40;3.50;;;;;;;24.02;41.86;98684.92;436377;1248;99191;-42
2023/06/22 19:27:30;;;;;;;8.30;3.90;;;;;;;23.51;42.77;98689.94;436302;1253;109417;-42
2023/06/22 19:37:40;;;;;;;7.60;3.90;;;;;;;23.38;42.90;98684.06;436352;1247;99110;-42
2023/06/22 19:57:52;;;;;;;11.90;5.20;;;;;;;22.70;44.73;98675.19;436441;1248;106819;-42
2023/06/22 20:08:04;;;;;;;7.50;4.70;;;;;;;22.35;46.24;98648.48;436428;1247;99119;-42
2023/06/22 20:18:12;;;;;;;8.10;5.80;;;;;;;22.14;47.00;98641.00;436311;1252;107931;-42
2023/06/22 20:28:19;;;;;;;13.60;7.20;;;;;;;21.92;47.47;98627.92;436302;1252;99324;-42
2023/06/22 20:48:35;;;;;;;20.90;12.20;;;;;;;21.54;48.83;98612.44;436263;1248;107969;-42
2023/06/22 20:58:45;;;;;;;13.70;9.00;;;;;;;21.48;49.71;98620.79;436299;1253;97976;-44
2023/06/22 21:08:53;;;;;;;14.90;8.70;;;;;;;21.48;50.18;98626.44;436223;1251;109822;-45
2023/06/22 21:19:00;;;;;;;19.00;13.40;;;;;;;21.30;50.30;98614.81;436393;1248;99211;-43
2023/06/22 21:29:07;;;;;;;16.40;10.90;;;;;;;21.05;50.90;98627.47;436233;1251;112002;-42
2023/06/22 21:39:14;;;;;;;16.00;8.80;;;;;;;20.84;51.59;98626.89;436336;1254;108694;-41
2023/06/22 21:49:22;;;;;;;14.00;8.40;;;;;;;20.63;52.30;98620.29;436152;1254;99215;-42
2023/06/22 21:59:29;;;;;;;28.80;14.40;;;;;;;20.53;53.03;98621.73;436210;1248;108143;-43
2023/06/22 22:09:36;;;;;;;19.10;12.10;;;;;;;20.53;53.70;98599.23;436279;1253;99227;-41
2023/06/22 22:19:44;;;;;;;24.10;15.30;;;;;;;20.55;54.32;98578.19;436386;1249;111767;-41
2023/06/22 22:29:51;;;;;;;38.20;21.20;;;;;;;20.55;54.61;98581.26;436252;1253;108139;-43
2023/06/22 22:50:59;;;;;;;32.60;18.40;;;;;;;20.24;55.80;98524.61;436177;1253;108935;-42
2023/06/22 23:01:06;;;;;;;23.20;13.30;;;;;;;20.13;56.40;98502.92;436251;1251;99337;-44
2023/06/22 23:11:14;;;;;;;14.30;10.60;;;;;;;20.16;56.88;98491.03;436382;1251;111253;-41
2023/06/22 23:21:20;;;;;;;14.70;11.10;;;;;;;20.34;57.15;98466.62;436305;1251;107790;-41
2023/06/22 23:31:27;;;;;;;16.40;12.00;;;;;;;20.49;57.33;98450.02;436243;1249;99250;-42
2023/06/22 23:41:36;;;;;;;14.90;12.30;;;;;;;20.77;57.43;98467.40;436320;1248;108263;-41
2023/06/22 23:51:44;;;;;;;16.10;13.10;;;;;;;20.63;57.46;98450.23;436551;1248;99234;-42
